sensor_id;sensor_type;location;lat;lon;timestamp;P1;durP1;ratioP1;P2;durP2;ratioP2
7166;SDS011;3625;51.762;14.320;2023-02-17T04:48:18;19.80;;;16.37;;
7166;SDS011;3625;51.762;14.320;2023-02-17T04:50:57;21.97;;;17.23;;
7166;SDS011;3625;51.762;14.320;2023-02-17T04:53:25;23.70;;;16.53;;
7166;SDS011;3625;51.762;14.320;2023-02-17T04:56:01;20.10;;;17.03;;
7166;SDS011;3625;51.762;14.320;2023-02-17T04:58:34;20.00;;;15.50;;
7166;SDS011;3625;51.762;14.320;2023-02-17T05:01:03;21.50;;;16.93;;
7166;SDS011;3625;51.762;14.320;2023-02-17T05:03:34;22.20;;;17.13;;
7166;SDS011;3625;51.762;14.320;2023-02-17T05:06:11;22.03;;;16.03;;
7166;SDS011;3625;51.762;14.320;2023-02-17T05:09:08;21.97;;;17.40;;
7166;SDS011;3625;51.762;14.320;2023-02-17T05:11:37;23.93;;;18.30;;
7166;SDS011;3625;51.762;14.320;2023-02-17T05:14:17;20.43;;;16.00;;
7166;SDS011;3625;51.762;14.320;2023-02-17T05:16:50;22.70;;;17.07;;
7166;SDS011;3625;51.762;14.320;2023-02-17T05:19:23;20.60;;;16.20;;
7166;SDS011;3625;51.762;14.320;2023-02-17T05:21:55;21.70;;;16.77;;
7166;SDS011;3625;51.762;14.320;2023-02-17T05:24:24;23.63;;;17.30;;
7166;SDS011;3625;51.762;14.320;2023-02-17T05:26:53;21.03;;;16.47;;
7166;SDS011;3625;51.762;14.320;2023-02-17T05:29:22;21.67;;;16.47;;
7166;SDS011;3625;51.762;14.320;2023-02-17T05:31:59;21.23;;;16.83;;
7166;SDS011;3625;51.762;14.320;2023-02-17T05:34:37;20.23;;;15.97;;
7166;SDS011;3625;51.762;14.320;2023-02-17T05:37:06;22.57;;;16.47;;
7166;SDS011;3625;51.762;14.320;2023-02-17T05:39:35;18.70;;;15.63;;
7166;SDS011;3625;51.762;14.320;2023-02-17T05:42:06;23.00;;;17.83;;
7166;SDS011;3625;51.762;14.320;2023-02-17T05:44:35;22.50;;;17.53;;
7166;SDS011;3625;51.762;14.320;2023-02-17T05:47:12;23.57;;;17.97;;
7166;SDS011;3625;51.762;14.320;2023-02-17T05:49:45;23.20;;;17.33;;
7166;SDS011;3625;51.762;14.320;2023-02-17T05:52:23;22.93;;;17.50;;
7166;SDS011;3625;51.762;14.320;2023-02-17T05:54:55;24.37;;;18.23;;
7166;SDS011;3625;51.762;14.320;2023-02-17T05:57:26;23.00;;;18.87;;
7166;SDS011;3625;51.762;14.320;2023-02-17T05:59:57;22.23;;;17.77;;
7166;SDS011;3625;51.762;14.320;2023-02-17T06:02:37;24.03;;;17.83;;
7166;SDS011;3625;51.762;14.320;2023-02-17T06:05:17;23.00;;;17.97;;
7166;SDS011;3625;51.762;14.320;2023-02-17T06:07:48;22.57;;;18.53;;
7166;SDS011;3625;51.762;14.320;2023-02-17T06:10:20;20.20;;;17.23;;
7166;SDS011;3625;51.762;14.320;2023-02-17T06:12:51;23.03;;;18.30;;
7166;SDS011;3625;51.762;14.320;2023-02-17T06:15:20;23.47;;;18.10;;
7166;SDS011;3625;51.762;14.320;2023-02-17T06:17:49;23.73;;;18.93;;
7166;SDS011;3625;51.762;14.320;2023-02-17T06:20:26;23.77;;;18.73;;
7166;SDS011;3625;51.762;14.320;2023-02-17T06:22:56;24.37;;;19.23;;
7166;SDS011;3625;51.762;14.320;2023-02-17T06:25:30;23.07;;;18.17;;
7166;SDS011;3625;51.762;14.320;2023-02-17T06:27:59;24.80;;;19.97;;
7166;SDS011;3625;51.762;14.320;2023-02-17T06:30:28;25.93;;;18.67;;
7166;SDS011;3625;51.762;14.320;2023-02-17T06:33:11;27.23;;;18.93;;
7166;SDS011;3625;51.762;14.320;2023-02-17T06:35:48;22.63;;;17.90;;
7166;SDS011;3625;51.762;14.320;2023-02-17T06:38:22;21.20;;;17.40;;
7166;SDS011;3625;51.762;14.320;2023-02-17T06:40:52;24.73;;;19.13;;
7166;SDS011;3625;51.762;14.320;2023-02-17T06:43:28;22.70;;;17.70;;
7166;SDS011;3625;51.762;14.320;2023-02-17T06:46:02;21.87;;;17.73;;
7166;SDS011;3625;51.762;14.320;2023-02-17T06:48:33;21.07;;;17.33;;
7166;SDS011;3625;51.762;14.320;2023-02-17T06:51:09;21.77;;;16.17;;
7166;SDS011;3625;51.762;14.320;2023-02-17T06:53:44;23.27;;;17.57;;
7166;SDS011;3625;51.762;14.320;2023-02-17T06:56:13;20.63;;;16.83;;
7166;SDS011;3625;51.762;14.320;2023-02-17T06:58:47;20.97;;;15.87;;
7166;SDS011;3625;51.762;14.320;2023-02-17T07:01:19;17.27;;;14.13;;
7166;SDS011;3625;51.762;14.320;2023-02-17T07:03:55;20.50;;;15.83;;
7166;SDS011;3625;51.762;14.320;2023-02-17T07:06:28;18.80;;;15.37;;
7166;SDS011;3625;51.762;14.320;2023-02-17T07:08:57;19.57;;;15.77;;
7166;SDS011;3625;51.762;14.320;2023-02-17T07:11:27;20.30;;;15.97;;
7166;SDS011;3625;51.762;14.320;2023-02-17T07:14:00;21.27;;;15.50;;
7166;SDS011;3625;51.762;14.320;2023-02-17T07:16:31;20.70;;;16.03;;
7166;SDS011;3625;51.762;14.320;2023-02-17T07:19:09;16.40;;;13.30;;
7166;SDS011;3625;51.762;14.320;2023-02-17T07:21:45;17.83;;;14.43;;
7166;SDS011;3625;51.762;14.320;2023-02-17T07:24:17;19.33;;;14.27;;
7166;SDS011;3625;51.762;14.320;2023-02-17T07:26:46;17.10;;;13.10;;
7166;SDS011;3625;51.762;14.320;2023-02-17T07:29:19;17.17;;;13.50;;
7166;SDS011;3625;51.762;14.320;2023-02-17T07:31:50;18.73;;;14.00;;
7166;SDS011;3625;51.762;14.320;2023-02-17T07:34:19;17.93;;;13.83;;
7166;SDS011;3625;51.762;14.320;2023-02-17T07:36:50;18.20;;;13.80;;
7166;SDS011;3625;51.762;14.320;2023-02-17T07:39:22;17.07;;;13.53;;
7166;SDS011;3625;51.762;14.320;2023-02-17T07:41:51;14.73;;;13.17;;
7166;SDS011;3625;51.762;14.320;2023-02-17T07:44:19;14.17;;;11.60;;
7166;SDS011;3625;51.762;14.320;2023-02-17T07:46:51;16.70;;;13.03;;
7166;SDS011;3625;51.762;14.320;2023-02-17T07:49:22;16.90;;;12.30;;
7166;SDS011;3625;51.762;14.320;2023-02-17T07:51:55;19.47;;;12.97;;
7166;SDS011;3625;51.762;14.320;2023-02-17T07:54:28;15.57;;;11.87;;
7166;SDS011;3625;51.762;14.320;2023-02-17T07:56:59;13.07;;;10.87;;
7166;SDS011;3625;51.762;14.320;2023-02-17T07:59:31;14.00;;;11.57;;
7166;SDS011;3625;51.762;14.320;2023-02-17T08:02:00;13.13;;;10.77;;
7166;SDS011;3625;51.762;14.320;2023-02-17T08:04:33;14.50;;;11.50;;
7166;SDS011;3625;51.762;14.320;2023-02-17T08:07:04;12.83;;;11.53;;
7166;SDS011;3625;51.762;14.320;2023-02-17T08:09:49;13.13;;;10.23;;
7166;SDS011;3625;51.762;14.320;2023-02-17T08:12:38;14.67;;;10.87;;
7166;SDS011;3625;51.762;14.320;2023-02-17T08:15:30;14.10;;;10.40;;
7166;SDS011;3625;51.762;14.320;2023-02-17T08:18:00;14.20;;;10.23;;
7166;SDS011;3625;51.762;14.320;2023-02-17T08:20:30;12.73;;;10.27;;
7166;SDS011;3625;51.762;14.320;2023-02-17T08:23:02;11.77;;;9.70;;
7166;SDS011;3625;51.762;14.320;2023-02-17T08:25:31;12.20;;;10.27;;
7166;SDS011;3625;51.762;14.320;2023-02-17T08:28:09;10.80;;;9.13;;
7166;SDS011;3625;51.762;14.320;2023-02-17T08:30:43;13.00;;;10.43;;
7166;SDS011;3625;51.762;14.320;2023-02-17T08:33:20;12.20;;;9.63;;
7166;SDS011;3625;51.762;14.320;2023-02-17T08:35:52;11.07;;;9.47;;
7166;SDS011;3625;51.762;14.320;2023-02-17T08:38:22;13.23;;;10.07;;
7166;SDS011;3625;51.762;14.320;2023-02-17T08:40:52;10.43;;;8.67;;
7166;SDS011;3625;51.762;14.320;2023-02-17T08:43:21;9.53;;;8.63;;
7166;SDS011;3625;51.762;14.320;2023-02-17T08:45:50;11.20;;;9.57;;
7166;SDS011;3625;51.762;14.320;2023-02-17T08:48:19;10.70;;;8.77;;
7166;SDS011;3625;51.762;14.320;2023-02-17T08:50:58;10.97;;;8.97;;
7166;SDS011;3625;51.762;14.320;2023-02-17T08:53:30;10.67;;;9.20;;
7166;SDS011;3625;51.762;14.320;2023-02-17T08:56:00;10.00;;;8.90;;
7166;SDS011;3625;51.762;14.320;2023-02-17T08:58:34;10.90;;;8.37;;
7166;SDS011;3625;51.762;14.320;2023-02-17T09:01:03;9.30;;;8.30;;
7166;SDS011;3625;51.762;14.320;2023-02-17T09:03:32;9.57;;;8.60;;
7166;SDS011;3625;51.762;14.320;2023-02-17T09:06:05;8.27;;;7.47;;
7166;SDS011;3625;51.762;14.320;2023-02-17T09:08:40;9.77;;;8.60;;
7166;SDS011;3625;51.762;14.320;2023-02-17T09:11:12;10.43;;;8.87;;
7166;SDS011;3625;51.762;14.320;2023-02-17T09:13:48;9.37;;;7.87;;
7166;SDS011;3625;51.762;14.320;2023-02-17T09:16:21;9.47;;;8.50;;
7166;SDS011;3625;51.762;14.320;2023-02-17T09:18:50;9.47;;;7.70;;
7166;SDS011;3625;51.762;14.320;2023-02-17T09:21:19;9.13;;;8.10;;
7166;SDS011;3625;51.762;14.320;2023-02-17T09:23:50;8.97;;;8.00;;
7166;SDS011;3625;51.762;14.320;2023-02-17T09:26:22;9.57;;;8.20;;
7166;SDS011;3625;51.762;14.320;2023-02-17T09:28:52;11.30;;;8.60;;
7166;SDS011;3625;51.762;14.320;2023-02-17T09:31:26;8.40;;;7.27;;
7166;SDS011;3625;51.762;14.320;2023-02-17T09:33:57;9.90;;;8.87;;
7166;SDS011;3625;51.762;14.320;2023-02-17T09:36:33;8.70;;;7.80;;
7166;SDS011;3625;51.762;14.320;2023-02-17T09:39:10;10.47;;;8.20;;
7166;SDS011;3625;51.762;14.320;2023-02-17T09:41:41;8.53;;;7.63;;
7166;SDS011;3625;51.762;14.320;2023-02-17T09:44:15;8.27;;;7.47;;
7166;SDS011;3625;51.762;14.320;2023-02-17T09:46:54;8.70;;;7.77;;
7166;SDS011;3625;51.762;14.320;2023-02-17T09:49:36;7.50;;;6.80;;
7166;SDS011;3625;51.762;14.320;2023-02-17T09:52:11;7.67;;;6.97;;
7166;SDS011;3625;51.762;14.320;2023-02-17T09:54:48;7.90;;;7.10;;
7166;SDS011;3625;51.762;14.320;2023-02-17T09:57:30;8.53;;;6.90;;
7166;SDS011;3625;51.762;14.320;2023-02-17T10:00:06;8.47;;;7.50;;
7166;SDS011;3625;51.762;14.320;2023-02-17T10:02:44;7.90;;;7.03;;
7166;SDS011;3625;51.762;14.320;2023-02-17T10:05:24;8.17;;;7.37;;
7166;SDS011;3625;51.762;14.320;2023-02-17T10:08:04;8.00;;;7.30;;
7166;SDS011;3625;51.762;14.320;2023-02-17T10:10:46;8.63;;;7.47;;
7166;SDS011;3625;51.762;14.320;2023-02-17T10:13:19;7.50;;;6.67;;
7166;SDS011;3625;51.762;14.320;2023-02-17T10:15:52;10.27;;;7.40;;
7166;SDS011;3625;51.762;14.320;2023-02-17T10:18:29;8.70;;;7.50;;
7166;SDS011;3625;51.762;14.320;2023-02-17T10:21:09;7.83;;;6.90;;
7166;SDS011;3625;51.762;14.320;2023-02-17T10:23:45;9.07;;;7.30;;
7166;SDS011;3625;51.762;14.320;2023-02-17T10:26:22;7.87;;;7.00;;
7166;SDS011;3625;51.762;14.320;2023-02-17T10:29:18;7.68;;;6.70;;
7166;SDS011;3625;51.762;14.320;2023-02-17T10:32:20;7.60;;;6.83;;
7166;SDS011;3625;51.762;14.320;2023-02-17T10:34:57;6.80;;;6.10;;
7166;SDS011;3625;51.762;14.320;2023-02-17T10:37:47;8.27;;;7.40;;
7166;SDS011;3625;51.762;14.320;2023-02-17T10:40:26;8.70;;;7.80;;
7166;SDS011;3625;51.762;14.320;2023-02-17T10:42:59;8.53;;;7.20;;
7166;SDS011;3625;51.762;14.320;2023-02-17T10:45:39;8.25;;;7.13;;
7166;SDS011;3625;51.762;14.320;2023-02-17T10:48:27;8.20;;;7.40;;
7166;SDS011;3625;51.762;14.320;2023-02-17T10:51:04;7.50;;;6.70;;
7166;SDS011;3625;51.762;14.320;2023-02-17T10:53:35;8.97;;;8.10;;
7166;SDS011;3625;51.762;14.320;2023-02-17T10:56:11;7.57;;;6.82;;
7166;SDS011;3625;51.762;14.320;2023-02-17T10:58:51;8.43;;;7.03;;
7166;SDS011;3625;51.762;14.320;2023-02-17T11:01:28;8.75;;;7.18;;
7166;SDS011;3625;51.762;14.320;2023-02-17T11:04:04;8.47;;;7.20;;
7166;SDS011;3625;51.762;14.320;2023-02-17T11:06:46;8.37;;;7.10;;
7166;SDS011;3625;51.762;14.320;2023-02-17T11:09:18;7.60;;;6.80;;
7166;SDS011;3625;51.762;14.320;2023-02-17T11:11:57;7.90;;;7.10;;
7166;SDS011;3625;51.762;14.320;2023-02-17T11:14:33;8.50;;;7.57;;
7166;SDS011;3625;51.762;14.320;2023-02-17T11:17:11;7.33;;;6.60;;
7166;SDS011;3625;51.762;14.320;2023-02-17T11:19:52;7.90;;;7.20;;
7166;SDS011;3625;51.762;14.320;2023-02-17T11:22:32;8.77;;;7.60;;
7166;SDS011;3625;51.762;14.320;2023-02-17T11:25:19;8.43;;;7.53;;
7166;SDS011;3625;51.762;14.320;2023-02-17T11:28:03;8.00;;;7.20;;
7166;SDS011;3625;51.762;14.320;2023-02-17T11:30:48;7.53;;;6.77;;
7166;SDS011;3625;51.762;14.320;2023-02-17T11:33:28;7.90;;;7.10;;
7166;SDS011;3625;51.762;14.320;2023-02-17T11:36:01;7.47;;;6.77;;
7166;SDS011;3625;51.762;14.320;2023-02-17T11:38:43;7.07;;;6.30;;
7166;SDS011;3625;51.762;14.320;2023-02-17T11:41:13;6.93;;;6.23;;
7166;SDS011;3625;51.762;14.320;2023-02-17T11:43:51;7.03;;;5.83;;
7166;SDS011;3625;51.762;14.320;2023-02-17T11:46:32;6.50;;;5.90;;
7166;SDS011;3625;51.762;14.320;2023-02-17T11:49:23;6.93;;;6.23;;
7166;SDS011;3625;51.762;14.320;2023-02-17T11:52:34;7.07;;;6.37;;
7166;SDS011;3625;51.762;14.320;2023-02-17T11:55:21;5.97;;;5.37;;
7166;SDS011;3625;51.762;14.320;2023-02-17T11:58:12;6.23;;;5.30;;
7166;SDS011;3625;51.762;14.320;2023-02-17T12:00:59;5.47;;;4.97;;
7166;SDS011;3625;51.762;14.320;2023-02-17T12:03:56;6.27;;;4.67;;
7166;SDS011;3625;51.762;14.320;2023-02-17T12:07:04;5.00;;;4.60;;
7166;SDS011;3625;51.762;14.320;2023-02-17T12:09:59;5.47;;;4.90;;
7166;SDS011;3625;51.762;14.320;2023-02-17T12:12:41;5.10;;;4.63;;
7166;SDS011;3625;51.762;14.320;2023-02-17T12:15:52;5.07;;;4.57;;
7166;SDS011;3625;51.762;14.320;2023-02-17T12:18:45;4.90;;;4.40;;
7166;SDS011;3625;51.762;14.320;2023-02-17T12:21:43;5.30;;;4.90;;
7166;SDS011;3625;51.762;14.320;2023-02-17T12:24:31;4.57;;;4.17;;
7166;SDS011;3625;51.762;14.320;2023-02-17T12:27:23;5.00;;;4.20;;
7166;SDS011;3625;51.762;14.320;2023-02-17T12:30:16;4.50;;;4.10;;
7166;SDS011;3625;51.762;14.320;2023-02-17T12:33:04;5.10;;;4.60;;
7166;SDS011;3625;51.762;14.320;2023-02-17T12:35:59;4.63;;;4.23;;
7166;SDS011;3625;51.762;14.320;2023-02-17T12:38:35;4.70;;;4.30;;
7166;SDS011;3625;51.762;14.320;2023-02-17T12:41:12;5.80;;;4.40;;
7166;SDS011;3625;51.762;14.320;2023-02-17T12:43:54;5.13;;;4.45;;
7166;SDS011;3625;51.762;14.320;2023-02-17T12:46:34;4.72;;;4.28;;
7166;SDS011;3625;51.762;14.320;2023-02-17T12:49:15;4.50;;;4.10;;
7166;SDS011;3625;51.762;14.320;2023-02-17T12:51:53;4.47;;;4.07;;
7166;SDS011;3625;51.762;14.320;2023-02-17T12:54:29;4.43;;;4.03;;
7166;SDS011;3625;51.762;14.320;2023-02-17T12:57:11;4.53;;;4.07;;
7166;SDS011;3625;51.762;14.320;2023-02-17T12:59:50;5.10;;;4.10;;
7166;SDS011;3625;51.762;14.320;2023-02-17T13:02:24;4.40;;;4.00;;
7166;SDS011;3625;51.762;14.320;2023-02-17T13:05:01;5.03;;;4.57;;
7166;SDS011;3625;51.762;14.320;2023-02-17T13:07:46;4.37;;;3.97;;
7166;SDS011;3625;51.762;14.320;2023-02-17T13:10:44;3.95;;;3.53;;
7166;SDS011;3625;51.762;14.320;2023-02-17T13:13:24;4.60;;;4.15;;
7166;SDS011;3625;51.762;14.320;2023-02-17T13:16:01;3.75;;;3.47;;
7166;SDS011;3625;51.762;14.320;2023-02-17T13:18:41;4.47;;;4.07;;
7166;SDS011;3625;51.762;14.320;2023-02-17T13:21:16;3.83;;;3.53;;
7166;SDS011;3625;51.762;14.320;2023-02-17T13:24:03;4.15;;;3.75;;
7166;SDS011;3625;51.762;14.320;2023-02-17T13:26:41;3.60;;;3.30;;
7166;SDS011;3625;51.762;14.320;2023-02-17T13:29:31;4.35;;;3.95;;
7166;SDS011;3625;51.762;14.320;2023-02-17T13:32:02;3.83;;;3.53;;
7166;SDS011;3625;51.762;14.320;2023-02-17T13:34:57;4.15;;;3.63;;
7166;SDS011;3625;51.762;14.320;2023-02-17T13:37:38;3.80;;;3.50;;
7166;SDS011;3625;51.762;14.320;2023-02-17T13:40:33;3.58;;;3.20;;
7166;SDS011;3625;51.762;14.320;2023-02-17T13:43:13;4.10;;;3.37;;
7166;SDS011;3625;51.762;14.320;2023-02-17T13:45:56;3.70;;;3.10;;
7166;SDS011;3625;51.762;14.320;2023-02-17T13:48:32;3.53;;;3.22;;
7166;SDS011;3625;51.762;14.320;2023-02-17T13:51:20;3.88;;;3.28;;
7166;SDS011;3625;51.762;14.320;2023-02-17T13:53:54;3.60;;;3.15;;
7166;SDS011;3625;51.762;14.320;2023-02-17T13:56:29;3.60;;;3.30;;
7166;SDS011;3625;51.762;14.320;2023-02-17T13:59:05;3.20;;;2.90;;
7166;SDS011;3625;51.762;14.320;2023-02-17T14:01:39;3.22;;;2.97;;
7166;SDS011;3625;51.762;14.320;2023-02-17T14:04:21;3.00;;;2.70;;
7166;SDS011;3625;51.762;14.320;2023-02-17T14:06:55;3.05;;;2.75;;
7166;SDS011;3625;51.762;14.320;2023-02-17T14:09:30;3.10;;;2.80;;
7166;SDS011;3625;51.762;14.320;2023-02-17T14:12:04;5.20;;;3.10;;
7166;SDS011;3625;51.762;14.320;2023-02-17T14:14:51;2.95;;;2.65;;
7166;SDS011;3625;51.762;14.320;2023-02-17T14:17:28;3.00;;;2.70;;
7166;SDS011;3625;51.762;14.320;2023-02-17T14:20:00;3.00;;;2.80;;
7166;SDS011;3625;51.762;14.320;2023-02-17T14:22:34;2.50;;;2.30;;
7166;SDS011;3625;51.762;14.320;2023-02-17T14:25:04;2.72;;;2.53;;
7166;SDS011;3625;51.762;14.320;2023-02-17T14:27:42;3.60;;;2.90;;
7166;SDS011;3625;51.762;14.320;2023-02-17T14:30:13;3.03;;;2.72;;
7166;SDS011;3625;51.762;14.320;2023-02-17T14:33:04;4.63;;;2.88;;
7166;SDS011;3625;51.762;14.320;2023-02-17T14:35:37;2.47;;;2.28;;
7166;SDS011;3625;51.762;14.320;2023-02-17T14:38:18;2.55;;;2.35;;
7166;SDS011;3625;51.762;14.320;2023-02-17T14:40:57;4.15;;;2.50;;
7166;SDS011;3625;51.762;14.320;2023-02-17T14:43:28;2.40;;;2.20;;
7166;SDS011;3625;51.762;14.320;2023-02-17T14:46:00;2.50;;;2.22;;
7166;SDS011;3625;51.762;14.320;2023-02-17T14:48:29;2.45;;;2.25;;
7166;SDS011;3625;51.762;14.320;2023-02-17T14:51:04;2.63;;;2.28;;
7166;SDS011;3625;51.762;14.320;2023-02-17T14:53:41;3.22;;;2.22;;
7166;SDS011;3625;51.762;14.320;2023-02-17T14:56:14;2.33;;;2.13;;
7166;SDS011;3625;51.762;14.320;2023-02-17T14:58:55;4.38;;;2.50;;
7166;SDS011;3625;51.762;14.320;2023-02-17T15:01:24;2.53;;;2.20;;
7166;SDS011;3625;51.762;14.320;2023-02-17T15:03:54;2.67;;;2.20;;
7166;SDS011;3625;51.762;14.320;2023-02-17T15:06:25;2.95;;;2.70;;
7166;SDS011;3625;51.762;14.320;2023-02-17T15:09:10;2.63;;;2.42;;
7166;SDS011;3625;51.762;14.320;2023-02-17T15:11:48;2.72;;;2.53;;
7166;SDS011;3625;51.762;14.320;2023-02-17T15:14:19;2.22;;;1.88;;
7166;SDS011;3625;51.762;14.320;2023-02-17T15:16:48;2.60;;;2.40;;
7166;SDS011;3625;51.762;14.320;2023-02-17T15:19:19;3.67;;;2.28;;
7166;SDS011;3625;51.762;14.320;2023-02-17T15:21:53;3.05;;;2.55;;
7166;SDS011;3625;51.762;14.320;2023-02-17T15:24:29;2.47;;;2.20;;
7166;SDS011;3625;51.762;14.320;2023-02-17T15:27:04;3.03;;;2.23;;
7166;SDS011;3625;51.762;14.320;2023-02-17T15:29:55;2.83;;;2.40;;
7166;SDS011;3625;51.762;14.320;2023-02-17T15:32:26;2.22;;;2.03;;
7166;SDS011;3625;51.762;14.320;2023-02-17T15:34:55;3.30;;;2.70;;
7166;SDS011;3625;51.762;14.320;2023-02-17T15:37:24;3.10;;;2.22;;
7166;SDS011;3625;51.762;14.320;2023-02-17T15:39:55;3.67;;;2.65;;
7166;SDS011;3625;51.762;14.320;2023-02-17T15:42:27;2.67;;;2.47;;
7166;SDS011;3625;51.762;14.320;2023-02-17T15:44:57;2.30;;;2.10;;
7166;SDS011;3625;51.762;14.320;2023-02-17T15:47:34;2.78;;;2.58;;
7166;SDS011;3625;51.762;14.320;2023-02-17T15:50:04;2.53;;;2.33;;
7166;SDS011;3625;51.762;14.320;2023-02-17T15:52:49;2.30;;;2.10;;
7166;SDS011;3625;51.762;14.320;2023-02-17T15:55:20;2.38;;;2.17;;
7166;SDS011;3625;51.762;14.320;2023-02-17T15:57:54;3.05;;;2.22;;
7166;SDS011;3625;51.762;14.320;2023-02-17T16:00:30;2.35;;;2.00;;
7166;SDS011;3625;51.762;14.320;2023-02-17T16:03:21;2.97;;;2.60;;
7166;SDS011;3625;51.762;14.320;2023-02-17T16:05:51;2.30;;;2.10;;
7166;SDS011;3625;51.762;14.320;2023-02-17T16:08:20;2.83;;;2.63;;
7166;SDS011;3625;51.762;14.320;2023-02-17T16:10:49;2.50;;;2.30;;
7166;SDS011;3625;51.762;14.320;2023-02-17T16:13:19;3.10;;;2.63;;
7166;SDS011;3625;51.762;14.320;2023-02-17T16:15:50;2.42;;;2.22;;
7166;SDS011;3625;51.762;14.320;2023-02-17T16:18:21;2.97;;;2.38;;
7166;SDS011;3625;51.762;14.320;2023-02-17T16:20:51;2.45;;;2.25;;
7166;SDS011;3625;51.762;14.320;2023-02-17T16:23:20;2.67;;;2.47;;
7166;SDS011;3625;51.762;14.320;2023-02-17T16:26:01;2.38;;;2.20;;
7166;SDS011;3625;51.762;14.320;2023-02-17T16:28:34;2.63;;;2.42;;
7166;SDS011;3625;51.762;14.320;2023-02-17T16:31:12;2.78;;;2.58;;
7166;SDS011;3625;51.762;14.320;2023-02-17T16:33:44;3.10;;;2.80;;
7166;SDS011;3625;51.762;14.320;2023-02-17T16:36:29;2.60;;;2.40;;
7166;SDS011;3625;51.762;14.320;2023-02-17T16:39:09;3.53;;;2.65;;
7166;SDS011;3625;51.762;14.320;2023-02-17T16:42:33;2.50;;;2.30;;
7166;SDS011;3625;51.762;14.320;2023-02-17T16:45:18;2.63;;;2.42;;
7166;SDS011;3625;51.762;14.320;2023-02-17T16:52:15;2.50;;;2.30;;
7166;SDS011;3625;51.762;14.320;2023-02-17T16:55:16;2.57;;;2.30;;
7166;SDS011;3625;51.762;14.320;2023-02-17T16:57:55;2.67;;;2.47;;
7166;SDS011;3625;51.762;14.320;2023-02-17T17:00:30;2.60;;;2.40;;
7166;SDS011;3625;51.762;14.320;2023-02-17T17:03:35;3.03;;;2.30;;
7166;SDS011;3625;51.762;14.320;2023-02-17T17:06:22;3.30;;;3.00;;
7166;SDS011;3625;51.762;14.320;2023-02-17T17:09:04;4.50;;;3.63;;
7166;SDS011;3625;51.762;14.320;2023-02-17T17:11:46;3.30;;;3.00;;
7166;SDS011;3625;51.762;14.320;2023-02-17T17:14:29;3.93;;;3.20;;
7166;SDS011;3625;51.762;14.320;2023-02-17T17:17:15;3.53;;;3.23;;
7166;SDS011;3625;51.762;14.320;2023-02-17T17:19:47;3.40;;;3.10;;
7166;SDS011;3625;51.762;14.320;2023-02-17T17:22:18;3.23;;;3.03;;
7166;SDS011;3625;51.762;14.320;2023-02-17T17:24:52;3.80;;;3.50;;
7166;SDS011;3625;51.762;14.320;2023-02-17T17:27:48;3.80;;;3.40;;
7166;SDS011;3625;51.762;14.320;2023-02-17T17:30:19;3.20;;;2.90;;
7166;SDS011;3625;51.762;14.320;2023-02-17T17:32:53;3.87;;;3.57;;
7166;SDS011;3625;51.762;14.320;2023-02-17T17:35:22;4.80;;;3.53;;
7166;SDS011;3625;51.762;14.320;2023-02-17T17:37:52;3.63;;;3.33;;
7166;SDS011;3625;51.762;14.320;2023-02-17T17:40:25;2.70;;;2.50;;
7166;SDS011;3625;51.762;14.320;2023-02-17T17:42:58;3.77;;;3.47;;
7166;SDS011;3625;51.762;14.320;2023-02-17T17:45:50;3.50;;;3.20;;
7166;SDS011;3625;51.762;14.320;2023-02-17T17:48:28;3.87;;;3.57;;
7166;SDS011;3625;51.762;14.320;2023-02-17T17:50:57;4.07;;;3.77;;
7166;SDS011;3625;51.762;14.320;2023-02-17T17:53:41;4.17;;;3.77;;
7166;SDS011;3625;51.762;14.320;2023-02-17T17:57:03;4.30;;;3.90;;
7166;SDS011;3625;51.762;14.320;2023-02-17T18:00:01;3.47;;;3.17;;
7166;SDS011;3625;51.762;14.320;2023-02-17T18:03:02;4.17;;;3.83;;
7166;SDS011;3625;51.762;14.320;2023-02-17T18:05:41;5.17;;;3.80;;
7166;SDS011;3625;51.762;14.320;2023-02-17T18:08:23;4.20;;;3.90;;
7166;SDS011;3625;51.762;14.320;2023-02-17T18:11:05;4.20;;;3.80;;
7166;SDS011;3625;51.762;14.320;2023-02-17T18:16:43;4.30;;;3.93;;
7166;SDS011;3625;51.762;14.320;2023-02-17T18:19:17;4.03;;;3.60;;
7166;SDS011;3625;51.762;14.320;2023-02-17T18:21:47;4.73;;;4.20;;
7166;SDS011;3625;51.762;14.320;2023-02-17T18:24:35;5.30;;;4.07;;
7166;SDS011;3625;51.762;14.320;2023-02-17T18:27:11;4.53;;;4.13;;
7166;SDS011;3625;51.762;14.320;2023-02-17T18:30:15;4.83;;;4.43;;
7166;SDS011;3625;51.762;14.320;2023-02-17T18:33:02;4.03;;;3.63;;
7166;SDS011;3625;51.762;14.320;2023-02-17T22:19:31;3.53;;;1.60;;
7166;SDS011;3625;51.762;14.320;2023-02-17T22:22:03;2.97;;;2.67;;
7166;SDS011;3625;51.762;14.320;2023-02-17T22:24:35;2.60;;;1.60;;
7166;SDS011;3625;51.762;14.320;2023-02-17T22:27:04;1.67;;;1.57;;
7166;SDS011;3625;51.762;14.320;2023-02-17T22:29:33;2.93;;;1.77;;
7166;SDS011;3625;51.762;14.320;2023-02-17T22:32:05;1.83;;;1.50;;
7166;SDS011;3625;51.762;14.320;2023-02-17T22:34:44;3.07;;;1.87;;
7166;SDS011;3625;51.762;14.320;2023-02-17T22:37:13;2.40;;;1.50;;
7166;SDS011;3625;51.762;14.320;2023-02-17T22:39:45;2.53;;;1.67;;
7166;SDS011;3625;51.762;14.320;2023-02-17T22:42:20;3.37;;;1.93;;
7166;SDS011;3625;51.762;14.320;2023-02-17T22:44:52;2.63;;;1.60;;
7166;SDS011;3625;51.762;14.320;2023-02-17T22:47:25;3.63;;;1.63;;
7166;SDS011;3625;51.762;14.320;2023-02-17T22:50:07;1.90;;;1.50;;
7166;SDS011;3625;51.762;14.320;2023-02-17T22:52:56;1.60;;;1.50;;
7166;SDS011;3625;51.762;14.320;2023-02-17T22:55:27;4.07;;;1.80;;
7166;SDS011;3625;51.762;14.320;2023-02-17T22:58:23;3.47;;;1.73;;
7166;SDS011;3625;51.762;14.320;2023-02-17T23:01:02;3.00;;;1.93;;
7166;SDS011;3625;51.762;14.320;2023-02-17T23:03:50;3.60;;;1.70;;
7166;SDS011;3625;51.762;14.320;2023-02-17T23:06:27;4.17;;;1.70;;
7166;SDS011;3625;51.762;14.320;2023-02-17T23:09:13;2.13;;;1.50;;
7166;SDS011;3625;51.762;14.320;2023-02-17T23:11:47;2.63;;;2.00;;
7166;SDS011;3625;51.762;14.320;2023-02-17T23:18:11;2.43;;;1.70;;
